createdAt,value
2023-03-19T00:01:20.082Z,14.70
2023-03-19T00:06:19.041Z,14.60
2023-03-19T00:11:18.947Z,14.60
2023-03-19T00:16:18.186Z,14.60
2023-03-19T00:21:16.779Z,14.60
2023-03-19T00:26:15.017Z,14.60
2023-03-19T00:31:17.986Z,14.60
2023-03-19T00:36:16.794Z,14.60
2023-03-19T00:41:15.741Z,14.60
2023-03-19T00:46:15.912Z,14.60
2023-03-19T00:51:15.909Z,14.60
2023-03-19T00:56:16.674Z,14.50
2023-03-19T01:01:18.610Z,14.50
2023-03-19T01:06:17.354Z,14.50
2023-03-19T01:11:18.009Z,14.50
2023-03-19T01:16:17.922Z,14.50
2023-03-19T01:21:16.487Z,14.50
2023-03-19T01:26:19.596Z,14.50
2023-03-19T01:31:22.303Z,14.40
2023-03-19T01:36:30.805Z,14.40
2023-03-19T01:41:33.268Z,14.40
2023-03-19T01:46:44.722Z,14.40
2023-03-19T01:51:49.335Z,14.40
2023-03-19T01:57:11.759Z,14.30
2023-03-19T02:02:32.121Z,14.30
2023-03-19T02:07:38.763Z,14.30
2023-03-19T02:12:37.961Z,14.30
2023-03-19T02:17:38.303Z,14.20
2023-03-19T02:22:41.146Z,14.20
2023-03-19T02:27:41.179Z,14.20
2023-03-19T02:32:39.780Z,14.10
2023-03-19T02:37:38.311Z,14.10
2023-03-19T02:42:36.891Z,14.10
2023-03-19T02:47:36.815Z,14.00
2023-03-19T02:52:35.913Z,14.00
2023-03-19T02:57:34.527Z,13.90
2023-03-19T03:02:33.481Z,13.90
2023-03-19T03:07:34.026Z,13.80
2023-03-19T03:12:32.954Z,13.80
2023-03-19T03:17:31.573Z,13.70
2023-03-19T03:22:30.104Z,13.70
2023-03-19T03:27:30.024Z,13.60
2023-03-19T03:32:28.336Z,13.60
2023-03-19T03:37:27.343Z,13.60
2023-03-19T03:49:25.074Z,13.50
2023-03-19T03:54:23.465Z,13.50
2023-03-19T03:59:22.503Z,13.40
2023-03-19T04:04:22.964Z,13.40
2023-03-19T04:09:24.540Z,13.30
2023-03-19T04:14:23.655Z,13.30
2023-03-19T04:19:26.185Z,13.30
2023-03-19T04:24:26.632Z,13.20
2023-03-19T04:29:25.886Z,13.20
2023-03-19T04:34:29.122Z,13.20
2023-03-19T04:39:28.718Z,13.20
2023-03-19T04:44:28.541Z,13.20
2023-03-19T04:49:29.085Z,13.10
2023-03-19T04:54:28.742Z,13.10
2023-03-19T04:59:29.101Z,13.10
2023-03-19T05:04:30.190Z,13.00
2023-03-19T05:09:35.120Z,13.00
2023-03-19T05:14:35.341Z,13.00
2023-03-19T05:19:52.489Z,13.00
2023-03-19T05:24:51.530Z,13.00
2023-03-19T05:29:53.030Z,12.90
2023-03-19T05:35:06.319Z,12.90
2023-03-19T05:40:09.758Z,12.80
2023-03-19T05:45:12.947Z,12.80
2023-03-19T05:50:20.950Z,12.80
2023-03-19T05:55:38.653Z,12.80
2023-03-19T06:00:42.378Z,12.70
2023-03-19T06:05:43.334Z,12.70
2023-03-19T06:11:04.125Z,12.70
2023-03-19T06:16:02.936Z,12.70
2023-03-19T06:21:11.605Z,12.70
2023-03-19T06:26:10.274Z,12.70
2023-03-19T06:31:17.744Z,12.70
2023-03-19T06:36:27.902Z,12.70
2023-03-19T06:41:27.824Z,12.80
2023-03-19T06:46:34.286Z,12.80
2023-03-19T06:51:35.853Z,12.90
2023-03-19T06:56:34.747Z,13.00
2023-03-19T07:01:34.218Z,13.10
2023-03-19T07:06:35.432Z,13.20
2023-03-19T07:11:37.049Z,13.20
2023-03-19T07:16:37.067Z,13.20
2023-03-19T07:21:35.950Z,13.20
2023-03-19T07:26:37.680Z,13.20
2023-03-19T07:32:46.717Z,13.40
2023-03-19T07:37:45.768Z,13.50
2023-03-19T07:42:45.937Z,13.60
2023-03-19T07:47:44.521Z,13.70
2023-03-19T07:52:43.758Z,13.80
2023-03-19T07:57:42.718Z,13.80
2023-03-19T08:02:44.599Z,13.90
2023-03-19T08:07:45.283Z,14.10
2023-03-19T08:12:48.810Z,14.20
2023-03-19T08:17:49.822Z,14.30
2023-03-19T08:22:52.832Z,14.40
2023-03-19T08:27:53.197Z,14.50
2023-03-19T08:32:53.098Z,14.60
2023-03-19T08:37:51.969Z,14.70
2023-03-19T08:42:50.788Z,14.90
2023-03-19T08:47:52.809Z,15.00
2023-03-19T08:52:54.120Z,15.10
2023-03-19T08:57:52.588Z,15.30
2023-03-19T09:02:50.892Z,15.40
2023-03-19T09:07:49.658Z,15.60
2023-03-19T09:12:49.773Z,15.80
2023-03-19T09:17:48.377Z,16.00
2023-03-19T09:22:49.777Z,16.10
2023-03-19T09:28:01.170Z,16.30
2023-03-19T09:32:59.651Z,16.50
2023-03-19T09:37:58.315Z,16.60
2023-03-19T09:43:07.983Z,16.80
2023-03-19T09:48:08.748Z,17.00
2023-03-19T09:53:14.244Z,17.10
2023-03-19T09:58:18.838Z,17.20
2023-03-19T10:03:55.931Z,17.40
2023-03-19T10:09:22.463Z,17.60
2023-03-19T10:20:53.325Z,17.90
2023-03-19T10:25:55.699Z,18.10
2023-03-19T10:31:02.667Z,18.20
2023-03-19T10:36:07.874Z,18.40
2023-03-19T10:41:21.428Z,18.60
2023-03-19T10:46:21.396Z,18.80
2023-03-19T10:51:26.310Z,18.90
2023-03-19T10:56:27.374Z,19.10
2023-03-19T11:01:30.614Z,19.30
2023-03-19T11:06:34.766Z,19.40
2023-03-19T11:11:38.694Z,19.60
2023-03-19T11:16:53.298Z,19.60
2023-03-19T11:22:09.059Z,19.70
2023-03-19T11:27:07.964Z,19.90
2023-03-19T11:32:22.720Z,20.00
2023-03-19T11:37:32.924Z,20.20
2023-03-19T11:42:50.169Z,20.30
2023-03-19T11:47:57.976Z,20.50
2023-03-19T11:53:12.570Z,20.60
2023-03-19T11:58:36.346Z,20.60
2023-03-19T12:03:59.616Z,20.70
2023-03-19T12:09:04.898Z,20.70
2023-03-19T12:14:27.756Z,20.70
2023-03-19T12:19:47.543Z,20.90
2023-03-19T12:25:12.058Z,21.00
2023-03-19T12:30:20.736Z,21.00
2023-03-19T12:35:24.575Z,21.00
2023-03-19T12:40:29.747Z,21.10
2023-03-19T12:45:32.426Z,21.10
2023-03-19T12:50:33.766Z,21.10
2023-03-19T12:55:41.650Z,21.20
2023-03-19T13:00:50.230Z,21.20
2023-03-19T13:05:54.429Z,21.30
2023-03-19T13:10:54.102Z,21.30
2023-03-19T13:15:57.298Z,21.30
2023-03-19T13:21:09.762Z,21.40
2023-03-19T13:26:13.036Z,21.40
2023-03-19T13:31:21.822Z,21.40
2023-03-19T13:36:20.415Z,21.40
2023-03-19T13:41:52.004Z,21.30
2023-03-19T13:46:51.701Z,21.20
2023-03-19T13:51:50.928Z,21.20
2023-03-19T13:57:21.475Z,21.10
2023-03-19T14:02:54.480Z,21.10
2023-03-19T14:07:57.221Z,20.90
2023-03-19T14:13:08.646Z,20.80
2023-03-19T14:18:08.416Z,20.80
2023-03-19T14:23:23.625Z,20.70
2023-03-19T14:28:33.714Z,20.70
2023-03-19T14:33:43.578Z,20.60
2023-03-19T14:38:50.171Z,20.50
2023-03-19T14:44:22.599Z,20.40
2023-03-19T14:49:59.946Z,20.40
2023-03-19T14:55:00.633Z,20.60
2023-03-19T15:00:01.087Z,20.60
2023-03-19T15:05:00.911Z,20.70
2023-03-19T15:10:06.466Z,20.80
2023-03-19T15:15:31.950Z,20.80
2023-03-19T15:20:36.554Z,20.70
2023-03-19T15:25:35.035Z,20.70
2023-03-19T15:30:50.546Z,20.60
2023-03-19T15:35:53.413Z,20.50
2023-03-19T15:40:52.279Z,20.30
2023-03-19T15:45:55.632Z,20.20
2023-03-19T15:50:59.171Z,20.10
2023-03-19T15:55:58.001Z,19.90
2023-03-19T16:01:00.650Z,19.70
2023-03-19T16:06:03.970Z,19.60
2023-03-19T16:11:16.679Z,19.50
2023-03-19T16:16:21.881Z,19.40
2023-03-19T16:21:23.100Z,19.20
2023-03-19T16:26:26.833Z,19.10
2023-03-19T16:31:32.313Z,19.10
2023-03-19T16:36:33.605Z,19.00
2023-03-19T16:41:33.773Z,18.90
2023-03-19T16:46:33.698Z,18.80
2023-03-19T16:51:32.235Z,18.80
2023-03-19T16:56:31.789Z,18.70
2023-03-19T17:01:30.753Z,18.70
2023-03-19T17:06:34.394Z,18.60
2023-03-19T17:11:38.276Z,18.60
2023-03-19T17:16:36.869Z,18.50
2023-03-19T17:21:36.995Z,18.40
2023-03-19T17:26:36.268Z,18.40
2023-03-19T17:31:35.183Z,18.30
2023-03-19T17:36:34.004Z,18.20
2023-03-19T17:41:35.517Z,18.10
2023-03-19T17:46:38.596Z,17.90
2023-03-19T17:51:37.576Z,17.90
2023-03-19T17:56:37.823Z,17.80
2023-03-19T18:01:36.655Z,17.70
2023-03-19T18:06:37.121Z,17.60
2023-03-19T18:11:37.525Z,17.50
2023-03-19T18:16:35.832Z,17.30
2023-03-19T18:21:34.356Z,17.20
2023-03-19T18:26:32.881Z,17.10
2023-03-19T18:31:32.544Z,17.00
2023-03-19T18:36:33.603Z,16.90
2023-03-19T18:41:32.176Z,16.80
2023-03-19T18:46:39.460Z,16.70
2023-03-19T18:51:41.549Z,16.60
2023-03-19T18:56:45.636Z,16.30
2023-03-19T19:01:45.518Z,16.40
2023-03-19T19:06:48.212Z,16.30
2023-03-19T19:11:48.448Z,16.20
2023-03-19T19:16:48.971Z,16.10
2023-03-19T19:21:47.264Z,16.10
2023-03-19T19:26:46.992Z,16.00
2023-03-19T19:31:45.783Z,16.00
2023-03-19T19:36:45.758Z,15.90
2023-03-19T19:41:44.988Z,15.80
2023-03-19T19:46:43.696Z,15.70
2023-03-19T19:51:42.309Z,15.70
2023-03-19T19:56:42.318Z,15.60
2023-03-19T20:01:41.157Z,15.60
2023-03-19T20:06:39.728Z,15.40
2023-03-19T20:11:38.856Z,15.40
2023-03-19T20:16:39.158Z,15.30
2023-03-19T20:21:37.706Z,15.20
2023-03-19T20:26:36.271Z,15.20
2023-03-19T20:31:36.741Z,15.10
2023-03-19T20:36:36.577Z,15.00
2023-03-19T20:41:35.217Z,14.90
2023-03-19T20:46:33.878Z,14.90
2023-03-19T20:51:33.526Z,14.80
2023-03-19T20:56:34.068Z,14.70
2023-03-19T21:01:32.972Z,14.70
2023-03-19T21:06:42.740Z,14.60
2023-03-19T21:11:52.546Z,14.50
2023-03-19T21:16:51.156Z,14.50
2023-03-19T21:21:49.747Z,14.40
2023-03-19T21:26:48.612Z,14.40
2023-03-19T21:31:48.511Z,14.30
2023-03-19T21:36:47.060Z,14.20
2023-03-19T21:41:47.293Z,14.20
2023-03-19T21:46:48.939Z,14.10
2023-03-19T21:51:48.151Z,14.10
2023-03-19T21:56:47.447Z,14.00
2023-03-19T22:01:47.678Z,13.90
2023-03-19T22:06:47.114Z,13.90
2023-03-19T22:11:46.756Z,13.80
2023-03-19T22:16:47.270Z,13.70
2023-03-19T22:21:45.597Z,13.50
2023-03-19T22:26:46.743Z,13.30
2023-03-19T22:31:45.675Z,13.10
2023-03-19T22:36:46.288Z,13.10
2023-03-19T22:41:46.751Z,13.10
2023-03-19T22:46:45.337Z,13.10
2023-03-19T22:51:45.225Z,13.20
2023-03-19T22:56:43.769Z,13.10
2023-03-19T23:01:43.537Z,13.10
2023-03-19T23:06:42.134Z,13.10
2023-03-19T23:11:42.072Z,13.20
2023-03-19T23:16:43.644Z,13.30
2023-03-19T23:21:42.198Z,13.20
2023-03-19T23:26:45.700Z,13.20
2023-03-19T23:31:44.210Z,13.30
2023-03-19T23:36:42.819Z,13.30
2023-03-19T23:41:48.544Z,13.30
2023-03-19T23:46:48.754Z,13.40
2023-03-19T23:51:47.264Z,13.40
2023-03-19T23:56:47.159Z,13.40
